Cadiz, California
Current Conditions -  °F | °C
As of 11:56 AM on Sunday 25 Jan 2015 (Local Time) from KNXP Reporting Station
Clear Clear  
Wind Chill: 69°   Ceiling: Unl
Heat Index: 69°   Visibility: 10mi
Dew Point: 28°   Wind: 9mph
Humidity: 22%   Direction: 330°NNW
Pressure: 30.22"   Gusts: NA
Location:  34.6377°N, 115.833°W
Report Text: KNXP 251956Z 33008KT 10SM CLR 21/M02 A3022 RMK AO2 SLP211 T02061022 $
Loading
Personal Weather Stations






























Interactive Weather Map New forecast layout! Learn more

10-Day Weather Forecast

Advertisements
Track Severe Weather on mobile